Time;durP1;ratioP1;P1;durP2;ratioP2;P2;SDS_P1;SDS_P2;PMS_P1;PMS_P2;Temp;Humidity;BMP_temperature;BMP_pressure;BME280_temperature;BME280_humidity;BME280_pressure;Samples;Min_cycle;Max_cycle;Signal;HPM_P1;HPM_P2
2023/12/08 00:01:51;;;;;;;4.67;4.27;;;-1.20;99.90;;;;;;5105695;28;20633;-79
2023/12/08 00:04:18;;;;;;;4.83;4.33;;;-1.20;99.90;;;;;;5104177;28;20663;-78
2023/12/08 00:06:43;;;;;;;4.67;4.27;;;-1.20;99.90;;;;;;5105176;28;20192;-78
2023/12/08 00:09:09;;;;;;;5.53;4.57;;;-1.20;99.90;;;;;;5097199;28;20231;-77
2023/12/08 00:11:37;;;;;;;5.60;4.63;;;-1.30;99.90;;;;;;5092674;28;20179;-77
2023/12/08 00:14:03;;;;;;;4.33;3.93;;;-1.30;99.90;;;;;;5073350;28;20274;-78
2023/12/08 00:16:30;;;;;;;5.70;4.13;;;-1.30;99.90;;;;;;5072712;28;20180;-82
2023/12/08 00:18:55;;;;;;;6.97;4.60;;;-1.40;99.90;;;;;;5078541;28;20267;-78
2023/12/08 00:21:21;;;;;;;5.47;4.43;;;-1.40;99.90;;;;;;5077020;28;20607;-79
2023/12/08 00:23:47;;;;;;;5.23;4.37;;;-1.40;99.90;;;;;;5077087;28;20185;-78
2023/12/08 00:26:13;;;;;;;6.23;4.50;;;-1.50;99.90;;;;;;5077337;28;20172;-80
2023/12/08 00:28:38;;;;;;;6.20;4.37;;;-1.50;99.90;;;;;;5077336;28;20176;-79
2023/12/08 00:31:04;;;;;;;6.43;4.33;;;-1.50;99.90;;;;;;5059677;28;20648;-79
2023/12/08 00:33:30;;;;;;;5.03;4.40;;;-1.50;99.90;;;;;;5076806;28;20287;-79
2023/12/08 00:35:56;;;;;;;6.83;5.17;;;-1.50;99.90;;;;;;5059329;28;20188;-79
2023/12/08 00:38:22;;;;;;;5.10;3.97;;;-1.50;99.90;;;;;;5076454;28;20181;-79
2023/12/08 00:40:49;;;;;;;6.23;4.43;;;-1.50;99.90;;;;;;5076779;28;20176;-80
2023/12/08 00:43:14;;;;;;;4.57;4.13;;;-1.40;99.90;;;;;;5077223;28;20182;-79
2023/12/08 00:45:40;;;;;;;5.67;4.17;;;-1.30;99.90;;;;;;5059025;28;20271;-81
2023/12/08 00:48:06;;;;;;;4.53;4.13;;;-1.40;99.90;;;;;;5077058;28;20191;-80
2023/12/08 00:50:32;;;;;;;5.47;4.50;;;-1.40;99.90;;;;;;5078465;28;20268;-79
2023/12/08 00:52:57;;;;;;;4.70;4.07;;;-1.50;99.90;;;;;;5058627;28;20187;-80
2023/12/08 00:55:23;;;;;;;4.27;3.87;;;-1.50;99.90;;;;;;5076659;28;20220;-81
2023/12/08 00:57:49;;;;;;;4.50;4.10;;;-1.50;99.90;;;;;;5077800;28;20650;-81
2023/12/08 01:00:15;;;;;;;4.90;4.33;;;-1.40;99.90;;;;;;5058940;28;20188;-79
2023/12/08 01:02:40;;;;;;;4.53;3.93;;;-1.50;99.90;;;;;;5059177;28;20179;-79
2023/12/08 01:05:07;;;;;;;4.63;3.93;;;-1.50;99.90;;;;;;5076162;28;20309;-76
2023/12/08 01:07:33;;;;;;;4.67;4.17;;;-1.50;99.90;;;;;;5076476;28;20196;-80
2023/12/08 01:09:59;;;;;;;5.23;4.53;;;-1.50;99.90;;;;;;5058703;28;20211;-78
2023/12/08 01:12:25;;;;;;;5.37;3.80;;;-1.50;99.90;;;;;;5058637;28;20254;-79
2023/12/08 01:14:51;;;;;;;6.80;3.90;;;-1.60;99.90;;;;;;5079436;28;20750;-78
2023/12/08 01:17:17;;;;;;;4.30;3.90;;;-1.60;99.90;;;;;;5070280;28;20188;-80
2023/12/08 01:19:42;;;;;;;4.57;4.17;;;-1.60;99.90;;;;;;5076510;28;20230;-79
2023/12/08 01:22:08;;;;;;;6.17;4.10;;;-1.60;99.90;;;;;;5076435;28;20184;-78
2023/12/08 01:24:34;;;;;;;6.80;4.70;;;-1.60;99.90;;;;;;5077700;28;20545;-79
2023/12/08 01:27:00;;;;;;;5.60;4.03;;;-1.60;99.90;;;;;;5075363;28;20226;-80
2023/12/08 01:29:25;;;;;;;5.37;4.60;;;-1.50;99.90;;;;;;5075793;28;20638;-79
2023/12/08 01:31:51;;;;;;;5.00;3.90;;;-1.60;99.90;;;;;;5075609;28;20176;-80
2023/12/08 01:34:17;;;;;;;4.70;4.23;;;-1.60;99.90;;;;;;5076079;28;20639;-78
2023/12/08 01:36:43;;;;;;;5.40;4.33;;;-1.60;99.90;;;;;;5075729;28;20597;-80
2023/12/08 01:39:08;;;;;;;4.93;4.53;;;-1.50;99.90;;;;;;5076806;28;20206;-77
2023/12/08 01:41:34;;;;;;;3.97;3.67;;;-1.50;99.90;;;;;;5078146;28;20234;-79
2023/12/08 01:44:00;;;;;;;5.07;4.33;;;-1.40;99.90;;;;;;5076820;28;20243;-77
2023/12/08 01:46:26;;;;;;;4.70;4.03;;;-1.40;99.90;;;;;;5059460;28;20194;-79
2023/12/08 01:48:52;;;;;;;5.27;4.27;;;-1.40;99.90;;;;;;5080385;28;20583;-77
2023/12/08 01:51:19;;;;;;;4.33;3.93;;;-1.30;99.90;;;;;;5092940;28;20173;-77
2023/12/08 01:53:46;;;;;;;5.13;4.27;;;-1.30;99.90;;;;;;5079549;28;20218;-80
2023/12/08 01:56:13;;;;;;;5.83;4.40;;;-1.30;99.90;;;;;;5074977;28;20186;-79
2023/12/08 01:58:40;;;;;;;5.17;4.43;;;-1.30;99.90;;;;;;5057731;28;20620;-79
2023/12/08 02:01:07;;;;;;;7.13;4.70;;;-1.40;99.90;;;;;;5075741;28;20194;-78
2023/12/08 02:03:33;;;;;;;7.13;5.17;;;-1.50;99.90;;;;;;5075606;28;20512;-77
2023/12/08 02:06:02;;;;;;;8.73;5.90;;;-1.50;99.90;;;;;;5075192;28;20171;-79
2023/12/08 02:08:29;;;;;;;11.07;7.87;;;-1.60;99.90;;;;;;5075005;28;20715;-78
2023/12/08 02:10:55;;;;;;;12.00;7.97;;;-1.60;99.90;;;;;;5075604;28;20195;-77
2023/12/08 02:13:24;;;;;;;11.97;8.53;;;-1.70;99.90;;;;;;5078065;28;20246;-78
2023/12/08 02:15:56;;;;;;;12.17;8.47;;;-1.80;99.90;;;;;;5081002;28;20177;-78
2023/12/08 02:18:22;;;;;;;15.93;9.20;;;-1.90;99.90;;;;;;5082932;28;20159;-79
2023/12/08 02:20:48;;;;;;;15.90;9.40;;;-1.90;99.90;;;;;;5079150;28;20226;-77
2023/12/08 02:23:13;;;;;;;12.63;8.43;;;-1.90;99.90;;;;;;5077000;28;20161;-77
2023/12/08 02:25:39;;;;;;;12.13;8.37;;;-1.90;99.90;;;;;;5083408;28;20173;-77
2023/12/08 02:28:06;;;;;;;10.43;8.00;;;-2.00;99.90;;;;;;5081861;28;20172;-77
2023/12/08 02:30:32;;;;;;;12.73;8.20;;;-2.00;99.90;;;;;;5064749;28;20183;-79
2023/12/08 02:33:21;;;;;;;12.87;8.50;;;-2.00;99.90;;;;;;5077214;28;20215;-79
2023/12/08 02:35:48;;;;;;;9.97;7.50;;;-2.20;99.90;;;;;;5085153;28;20245;-79
2023/12/08 02:38:20;;;;;;;11.77;7.10;;;-2.20;99.90;;;;;;5082359;28;20155;-78
2023/12/08 02:40:46;;;;;;;10.77;7.07;;;-2.20;99.90;;;;;;5094239;28;20185;-79
2023/12/08 02:43:12;;;;;;;8.13;6.40;;;-2.20;99.90;;;;;;5087525;28;20244;-79
2023/12/08 02:45:37;;;;;;;9.90;7.43;;;-2.20;99.90;;;;;;5075492;28;20168;-79
2023/12/08 02:48:03;;;;;;;11.13;7.17;;;-2.20;99.90;;;;;;5075227;28;20202;-78
2023/12/08 02:50:29;;;;;;;9.33;6.43;;;-2.20;99.90;;;;;;5075982;28;20251;-79
2023/12/08 02:52:55;;;;;;;8.73;6.63;;;-2.20;99.90;;;;;;5075076;28;20685;-80
2023/12/08 02:55:21;;;;;;;9.10;6.60;;;-2.20;99.90;;;;;;5057299;28;20273;-77
2023/12/08 02:57:46;;;;;;;10.20;7.63;;;-2.20;99.90;;;;;;5056697;28;20232;-80
2023/12/08 03:00:13;;;;;;;11.77;7.40;;;-2.30;99.90;;;;;;5074303;28;20631;-79
2023/12/08 03:02:38;;;;;;;10.77;7.53;;;-2.30;99.90;;;;;;5074574;28;20199;-80
2023/12/08 03:05:05;;;;;;;12.20;8.17;;;-2.30;99.90;;;;;;5075235;28;20167;-79
2023/12/08 03:07:30;;;;;;;11.20;7.57;;;-2.30;99.90;;;;;;5057854;28;20178;-79
2023/12/08 03:09:56;;;;;;;8.20;6.77;;;-2.40;99.90;;;;;;5075581;28;20484;-77
2023/12/08 03:12:22;;;;;;;10.77;7.73;;;-2.40;99.90;;;;;;5074122;28;20252;-79
2023/12/08 03:14:48;;;;;;;8.83;6.07;;;-2.50;99.90;;;;;;5074581;28;20199;-78
2023/12/08 03:17:13;;;;;;;10.43;7.17;;;-2.40;99.90;;;;;;5074414;28;20175;-81
2023/12/08 03:19:40;;;;;;;8.80;6.43;;;-2.30;99.90;;;;;;5057532;28;20191;-79
2023/12/08 03:22:07;;;;;;;7.37;5.97;;;-2.40;99.90;;;;;;5075121;28;20548;-79
2023/12/08 03:24:32;;;;;;;9.93;6.40;;;-2.40;99.90;;;;;;5074878;28;20704;-78
2023/12/08 03:26:58;;;;;;;6.00;5.40;;;-1.90;99.90;;;;;;5075358;28;20176;-78
2023/12/08 03:29:24;;;;;;;8.30;5.37;;;-2.40;99.90;;;;;;5077457;28;20172;-79
2023/12/08 03:31:50;;;;;;;8.13;4.93;;;-2.50;99.90;;;;;;5085392;28;20481;-80
2023/12/08 03:34:15;;;;;;;5.50;4.93;;;-2.50;99.90;;;;;;5075527;28;20204;-79
2023/12/08 03:36:41;;;;;;;5.57;4.60;;;-2.50;99.90;;;;;;5074424;28;20634;-79
2023/12/08 03:39:07;;;;;;;6.80;5.53;;;-2.40;99.90;;;;;;5073779;28;20178;-78
2023/12/08 03:41:33;;;;;;;8.40;5.50;;;-2.40;99.90;;;;;;5073721;28;20168;-79
2023/12/08 03:43:58;;;;;;;7.03;5.17;;;-2.20;99.90;;;;;;5076033;28;20246;-80
2023/12/08 03:46:24;;;;;;;6.53;5.03;;;-2.20;99.90;;;;;;5074601;28;20515;-79
2023/12/08 03:48:50;;;;;;;5.13;4.53;;;-2.20;99.90;;;;;;5056892;28;20233;-77
2023/12/08 03:51:16;;;;;;;6.70;4.90;;;-2.20;99.90;;;;;;5074789;28;20628;-79
2023/12/08 03:53:42;;;;;;;5.90;5.03;;;-2.20;99.90;;;;;;5080712;28;20190;-78
2023/12/08 03:56:08;;;;;;;6.33;4.23;;;-2.20;99.90;;;;;;5092197;28;20185;-79
2023/12/08 03:58:33;;;;;;;7.80;5.90;;;-2.10;99.90;;;;;;5093059;28;20166;-79
2023/12/08 04:00:59;;;;;;;9.03;6.73;;;-2.20;99.90;;;;;;5094084;28;20491;-78
2023/12/08 04:03:25;;;;;;;10.13;7.10;;;-2.40;99.90;;;;;;5075331;28;20175;-78
2023/12/08 04:05:51;;;;;;;11.17;7.73;;;-2.40;99.90;;;;;;5093694;28;20172;-77
2023/12/08 04:08:17;;;;;;;12.10;7.10;;;-2.50;99.90;;;;;;5094486;28;20214;-77
2023/12/08 04:10:43;;;;;;;8.73;7.13;;;-2.50;99.90;;;;;;5110085;28;20168;-77
2023/12/08 04:13:09;;;;;;;11.30;7.73;;;-2.50;99.90;;;;;;5100676;28;20598;-78
2023/12/08 04:15:34;;;;;;;10.07;7.57;;;-2.50;99.90;;;;;;5094200;28;20259;-78
2023/12/08 04:18:00;;;;;;;11.27;7.17;;;-2.50;99.90;;;;;;5094594;28;20171;-79
2023/12/08 04:20:26;;;;;;;10.10;6.87;;;-2.50;99.90;;;;;;5075952;28;20680;-79
2023/12/08 04:22:52;;;;;;;9.63;6.90;;;-2.60;99.90;;;;;;5093876;28;20171;-78
2023/12/08 04:25:17;;;;;;;11.27;7.17;;;-2.80;99.90;;;;;;5093729;28;20257;-77
2023/12/08 04:27:43;;;;;;;10.43;7.73;;;-2.70;99.90;;;;;;5101029;28;20174;-79
2023/12/08 04:30:09;;;;;;;8.73;7.30;;;-2.70;99.90;;;;;;5107001;28;20240;-82
2023/12/08 04:32:35;;;;;;;12.33;7.30;;;-2.60;99.90;;;;;;5098233;28;20196;-79
2023/12/08 04:35:01;;;;;;;10.43;7.77;;;-2.70;99.90;;;;;;5097728;28;20210;-76
2023/12/08 04:37:27;;;;;;;11.27;7.63;;;-2.60;99.90;;;;;;5097792;28;20179;-78
2023/12/08 04:39:53;;;;;;;8.67;7.50;;;-2.80;99.90;;;;;;5098033;28;20634;-79
2023/12/08 04:42:18;;;;;;;10.77;7.17;;;-2.70;99.90;;;;;;5097425;28;20249;-79
2023/12/08 04:44:44;;;;;;;11.07;7.90;;;-2.60;99.90;;;;;;5096883;28;20190;-79
2023/12/08 04:47:10;;;;;;;9.77;7.57;;;-2.70;99.90;;;;;;5096702;28;20179;-79
2023/12/08 04:49:36;;;;;;;9.83;8.03;;;-2.80;99.90;;;;;;5096065;28;20708;-78
2023/12/08 04:52:02;;;;;;;10.10;7.47;;;-2.70;99.90;;;;;;5075739;28;20276;-79
2023/12/08 04:54:28;;;;;;;11.50;7.77;;;-2.80;99.90;;;;;;5078821;28;20282;-78
2023/12/08 04:56:54;;;;;;;12.57;8.63;;;-2.90;99.90;;;;;;5090262;28;20267;-77
2023/12/08 04:59:21;;;;;;;9.93;8.23;;;-2.90;99.90;;;;;;5099249;28;20166;-78
2023/12/08 05:01:51;;;;;;;12.30;8.20;;;-2.90;99.90;;;;;;5099963;28;20172;-78
2023/12/08 05:04:20;;;;;;;11.60;8.37;;;-3.10;99.90;;;;;;5098810;28;20278;-78
2023/12/08 05:06:49;;;;;;;11.73;8.67;;;-3.20;99.90;;;;;;5087147;28;20274;-78
2023/12/08 05:09:14;;;;;;;12.90;8.07;;;-3.10;99.90;;;;;;5118006;27;20202;-78
2023/12/08 05:11:40;;;;;;;12.77;8.37;;;-3.00;99.90;;;;;;5129295;28;20201;-78
2023/12/08 05:14:06;;;;;;;11.70;8.17;;;-3.10;99.90;;;;;;5123369;28;20242;-77
2023/12/08 05:16:32;;;;;;;15.53;9.17;;;-3.20;99.90;;;;;;5128927;28;20181;-80
2023/12/08 05:18:57;;;;;;;9.90;7.90;;;-3.10;99.90;;;;;;5119169;28;20594;-81
2023/12/08 05:21:24;;;;;;;12.10;8.57;;;-3.20;99.90;;;;;;5116451;28;20713;-80
2023/12/08 05:23:50;;;;;;;14.90;8.67;;;-3.10;99.90;;;;;;5117798;28;20181;-78
2023/12/08 05:26:15;;;;;;;14.07;9.30;;;-3.20;99.90;;;;;;5119003;28;20596;-78
2023/12/08 05:28:41;;;;;;;12.80;8.93;;;-3.10;99.90;;;;;;5115942;28;20215;-78
2023/12/08 05:31:07;;;;;;;13.77;8.70;;;-3.00;99.90;;;;;;5116793;28;20177;-81
2023/12/08 05:33:33;;;;;;;13.90;8.37;;;-3.00;99.90;;;;;;5116265;28;20206;-79
2023/12/08 05:35:58;;;;;;;11.40;8.40;;;-2.80;99.90;;;;;;5115307;28;20261;-77
2023/12/08 05:38:24;;;;;;;8.20;6.47;;;-2.90;99.90;;;;;;5117892;28;20178;-77
2023/12/08 05:40:50;;;;;;;9.40;7.17;;;-2.90;99.90;;;;;;5117310;28;20230;-79
2023/12/08 05:43:16;;;;;;;10.60;6.20;;;-2.90;99.90;;;;;;5116512;28;20177;-81
2023/12/08 05:45:42;;;;;;;9.77;6.90;;;-2.80;99.90;;;;;;5117511;28;20166;-79
2023/12/08 05:48:08;;;;;;;12.03;5.73;;;-2.90;99.90;;;;;;5118079;27;20707;-79
2023/12/08 05:50:34;;;;;;;11.13;6.87;;;-2.90;99.90;;;;;;5115059;28;20238;-78
2023/12/08 05:52:59;;;;;;;8.00;6.13;;;-2.80;99.90;;;;;;5116030;28;20173;-79
2023/12/08 05:55:25;;;;;;;7.77;6.13;;;-2.70;99.90;;;;;;5114938;28;20209;-79
2023/12/08 05:57:51;;;;;;;11.03;6.97;;;-2.80;99.90;;;;;;5115935;28;20175;-80
2023/12/08 06:00:18;;;;;;;11.00;6.43;;;-2.70;99.90;;;;;;5116581;28;20183;-78
2023/12/08 06:02:45;;;;;;;8.80;6.40;;;-2.60;99.90;;;;;;5115471;28;20608;-78
2023/12/08 06:05:12;;;;;;;8.57;6.07;;;-2.60;99.90;;;;;;5115821;28;20178;-79
2023/12/08 06:07:39;;;;;;;10.97;6.57;;;-2.60;99.90;;;;;;5114279;28;20178;-78
2023/12/08 06:10:07;;;;;;;10.93;6.67;;;-2.60;99.90;;;;;;5093728;28;20186;-79
2023/12/08 06:12:36;;;;;;;12.60;6.27;;;-2.60;99.90;;;;;;5078768;28;20178;-78
2023/12/08 06:15:02;;;;;;;9.07;6.53;;;-2.60;99.90;;;;;;5097363;28;20263;-80
2023/12/08 06:17:28;;;;;;;10.87;6.40;;;-2.50;99.90;;;;;;5096605;28;20174;-79
2023/12/08 06:19:54;;;;;;;11.60;6.03;;;-2.60;99.90;;;;;;5079286;28;20189;-78
2023/12/08 06:22:20;;;;;;;12.33;7.07;;;-2.50;99.90;;;;;;5094977;28;20229;-79
2023/12/08 06:24:46;;;;;;;9.40;6.50;;;-2.50;99.90;;;;;;5095088;28;20195;-78
2023/12/08 06:27:14;;;;;;;11.93;6.27;;;-2.40;99.90;;;;;;5095282;28;20232;-78
2023/12/08 06:29:40;;;;;;;7.70;6.37;;;-2.40;99.90;;;;;;5098877;28;20564;-78
2023/12/08 06:32:06;;;;;;;11.30;6.37;;;-2.30;99.90;;;;;;5087732;28;20189;-79
2023/12/08 06:34:32;;;;;;;9.07;6.30;;;-2.30;99.90;;;;;;5097068;28;20210;-77
2023/12/08 06:36:58;;;;;;;10.00;6.13;;;-2.20;99.90;;;;;;5095653;28;20172;-77
2023/12/08 06:39:23;;;;;;;9.63;6.53;;;-2.20;99.90;;;;;;5095832;28;20174;-78
2023/12/08 06:41:49;;;;;;;10.13;6.63;;;-2.30;99.90;;;;;;5096513;28;20189;-78
2023/12/08 06:44:15;;;;;;;8.40;5.97;;;-2.20;99.90;;;;;;5095424;28;20235;-79
2023/12/08 06:46:42;;;;;;;8.77;6.53;;;-2.30;99.90;;;;;;5096326;28;20211;-77
2023/12/08 06:49:08;;;;;;;10.20;6.13;;;-2.40;99.90;;;;;;5096329;28;20660;-80
2023/12/08 06:51:35;;;;;;;11.60;6.57;;;-2.40;99.90;;;;;;5077605;28;20258;-78
2023/12/08 06:54:02;;;;;;;7.70;6.13;;;-2.40;99.90;;;;;;5096648;28;20259;-78
2023/12/08 06:56:29;;;;;;;10.27;6.73;;;-2.30;99.90;;;;;;5099078;28;20163;-78
2023/12/08 06:58:54;;;;;;;9.90;7.60;;;-2.30;99.90;;;;;;5103289;28;20170;-77
2023/12/08 07:01:20;;;;;;;10.50;7.87;;;-2.20;99.90;;;;;;5098708;28;20219;-77
2023/12/08 07:03:47;;;;;;;9.93;8.03;;;-2.30;99.90;;;;;;5105128;28;20199;-78
2023/12/08 07:06:13;;;;;;;10.83;7.73;;;-2.20;99.90;;;;;;5105332;28;20179;-78
2023/12/08 07:08:39;;;;;;;11.37;8.47;;;-2.30;99.90;;;;;;5105295;28;20233;-77
2023/12/08 07:11:05;;;;;;;10.00;7.70;;;-2.30;99.90;;;;;;5103766;28;20597;-78
2023/12/08 07:13:30;;;;;;;10.23;7.67;;;-2.40;99.90;;;;;;5080308;28;20199;-79
2023/12/08 07:15:56;;;;;;;10.67;7.67;;;-2.50;99.90;;;;;;5095137;28;20217;-79
2023/12/08 07:18:22;;;;;;;9.83;7.77;;;-2.50;99.90;;;;;;5094726;28;20204;-80
2023/12/08 07:20:48;;;;;;;9.03;7.30;;;-2.50;99.90;;;;;;5094905;28;20174;-80
2023/12/08 07:23:14;;;;;;;12.27;9.00;;;-2.40;99.90;;;;;;5076869;28;20176;-79
2023/12/08 07:25:39;;;;;;;13.57;8.60;;;-2.30;99.90;;;;;;5094109;28;20174;-79
2023/12/08 07:28:06;;;;;;;10.80;8.37;;;-2.20;99.90;;;;;;5094517;28;20309;-78
2023/12/08 07:30:32;;;;;;;12.50;8.57;;;-2.10;99.90;;;;;;5095546;28;20174;-78
2023/12/08 07:32:58;;;;;;;15.10;9.17;;;-2.10;99.90;;;;;;5103518;28;20230;-78
2023/12/08 07:35:24;;;;;;;16.10;9.60;;;-2.00;99.90;;;;;;5109948;28;20194;-78
2023/12/08 07:37:49;;;;;;;13.33;9.23;;;-2.10;99.90;;;;;;5110471;28;20166;-78
2023/12/08 07:40:15;;;;;;;16.47;9.83;;;-2.30;99.90;;;;;;5082623;28;20228;-79
2023/12/08 07:42:42;;;;;;;13.70;8.83;;;-2.10;99.90;;;;;;5096344;28;20171;-77
2023/12/08 07:45:09;;;;;;;12.20;9.33;;;-2.20;99.90;;;;;;5094630;28;20666;-75
2023/12/08 07:47:35;;;;;;;13.30;8.73;;;-2.30;99.90;;;;;;5095170;28;20247;-77
2023/12/08 07:50:01;;;;;;;12.37;9.30;;;-2.50;99.90;;;;;;5083965;28;20623;-76
2023/12/08 07:52:26;;;;;;;16.03;10.03;;;-2.50;99.90;;;;;;5098387;28;20172;-77
2023/12/08 07:54:52;;;;;;;13.90;9.37;;;-2.40;99.90;;;;;;5098704;28;20233;-76
2023/12/08 07:57:21;;;;;;;9.67;7.50;;;-2.10;99.90;;;;;;5095947;28;20171;-77
2023/12/08 07:59:47;;;;;;;13.97;9.77;;;-2.20;99.90;;;;;;5095315;28;20538;-76
2023/12/08 08:02:13;;;;;;;14.80;9.40;;;-2.00;99.90;;;;;;5094081;28;20184;-77
2023/12/08 08:04:39;;;;;;;12.13;9.03;;;-1.80;99.90;;;;;;5094904;28;20189;-76
2023/12/08 08:07:05;;;;;;;13.77;9.73;;;-1.60;99.90;;;;;;5110899;28;20188;-76
2023/12/08 08:09:31;;;;;;;15.53;10.40;;;-1.50;99.90;;;;;;5106815;28;20250;-76
2023/12/08 08:11:59;;;;;;;10.73;7.20;;;-1.60;99.90;;;;;;5098671;28;20195;-78
2023/12/08 08:14:28;;;;;;;10.63;6.63;;;-2.70;99.90;;;;;;5098804;28;20211;-77
2023/12/08 08:16:54;;;;;;;9.20;7.20;;;-1.70;99.90;;;;;;5099216;28;20168;-77
2023/12/08 08:19:20;;;;;;;8.77;6.63;;;-1.70;99.90;;;;;;5099750;28;20896;-78
2023/12/08 08:21:46;;;;;;;10.83;6.93;;;-1.60;99.90;;;;;;5081776;28;20183;-79
2023/12/08 08:24:11;;;;;;;10.53;6.73;;;-1.60;99.90;;;;;;5099002;28;20244;-76
2023/12/08 08:26:41;;;;;;;10.40;6.83;;;-1.50;99.90;;;;;;5097609;28;20628;-74
2023/12/08 08:29:07;;;;;;;6.53;5.77;;;-1.40;99.90;;;;;;5096981;28;20222;-76
2023/12/08 08:31:33;;;;;;;10.13;6.87;;;-1.40;99.90;;;;;;5097554;28;20172;-77
2023/12/08 08:33:58;;;;;;;9.20;7.03;;;-1.40;99.90;;;;;;5098118;28;20218;-77
2023/12/08 08:36:27;;;;;;;12.63;6.57;;;-1.40;99.90;;;;;;5097019;28;20526;-78
2023/12/08 08:38:53;;;;;;;6.90;5.70;;;-1.20;99.90;;;;;;5084895;28;20188;-76
2023/12/08 08:41:18;;;;;;;9.67;7.07;;;-0.90;99.90;;;;;;5078066;28;20170;-76
2023/12/08 08:43:44;;;;;;;10.10;8.03;;;-0.60;99.90;;;;;;5064652;28;20182;-77
2023/12/08 08:46:10;;;;;;;12.53;8.80;;;-0.20;99.90;;;;;;5084335;28;20172;-77
2023/12/08 08:48:36;;;;;;;13.37;9.87;;;0.00;99.90;;;;;;5097258;28;20250;-77
2023/12/08 08:51:02;;;;;;;11.77;8.57;;;-0.10;99.90;;;;;;5098642;28;20171;-77
2023/12/08 08:53:29;;;;;;;13.23;9.30;;;-0.20;99.90;;;;;;5097813;28;20223;-77
2023/12/08 08:55:55;;;;;;;12.27;9.43;;;-0.20;99.90;;;;;;5079982;28;20197;-76
2023/12/08 08:58:21;;;;;;;11.70;9.87;;;-0.30;99.90;;;;;;5096929;28;20200;-76
2023/12/08 09:00:47;;;;;;;12.03;9.37;;;-0.20;99.90;;;;;;5080849;28;20184;-77
2023/12/08 09:03:13;;;;;;;12.10;10.03;;;-0.20;99.90;;;;;;5099732;28;20169;-77
2023/12/08 09:05:41;;;;;;;14.50;10.03;;;-0.30;99.90;;;;;;5097812;28;20189;-76
2023/12/08 09:08:08;;;;;;;12.60;8.83;;;-0.40;99.90;;;;;;5101653;28;20235;-75
2023/12/08 09:10:38;;;;;;;11.57;8.90;;;-0.40;99.90;;;;;;5085682;28;20166;-76
2023/12/08 09:13:04;;;;;;;13.40;10.17;;;-0.40;99.90;;;;;;5078998;28;20182;-75
2023/12/08 09:15:30;;;;;;;15.23;10.40;;;-0.70;99.90;;;;;;5077867;28;20250;-76
2023/12/08 09:17:56;;;;;;;14.93;11.17;;;-0.80;99.90;;;;;;5077825;28;20181;-77
2023/12/08 09:20:23;;;;;;;16.27;12.10;;;-0.60;99.90;;;;;;5077656;28;20176;-76
2023/12/08 09:22:51;;;;;;;17.27;13.00;;;-0.50;99.90;;;;;;5076759;28;20209;-76
2023/12/08 09:25:18;;;;;;;18.10;11.90;;;-0.60;99.90;;;;;;5077950;28;20172;-75
2023/12/08 09:27:44;;;;;;;18.20;11.87;;;-0.60;99.90;;;;;;5078158;28;20204;-77
2023/12/08 09:30:10;;;;;;;19.40;12.20;;;-0.40;99.90;;;;;;5077726;28;20172;-76
2023/12/08 09:32:36;;;;;;;15.90;11.57;;;-0.40;99.90;;;;;;5077743;28;20170;-75
2023/12/08 09:35:02;;;;;;;15.80;11.33;;;-0.40;99.90;;;;;;5079357;28;21030;-77
2023/12/08 09:37:28;;;;;;;18.37;11.83;;;-0.40;99.90;;;;;;5063893;28;20215;-76
2023/12/08 09:39:54;;;;;;;18.37;11.53;;;-0.30;99.90;;;;;;5067236;28;20185;-76
2023/12/08 09:42:34;;;;;;;15.30;11.10;;;-0.20;99.90;;;;;;5077434;28;20171;-76
2023/12/08 09:45:04;;;;;;;15.30;10.87;;;-0.20;99.90;;;;;;5057912;28;20545;-74
2023/12/08 09:47:33;;;;;;;15.00;10.50;;;-0.10;99.90;;;;;;5075123;28;20178;-77
2023/12/08 09:50:01;;;;;;;15.00;11.17;;;-0.20;99.90;;;;;;5075069;28;20681;-77
2023/12/08 09:52:29;;;;;;;15.87;11.13;;;-0.20;99.90;;;;;;5074954;28;20256;-75
2023/12/08 09:54:56;;;;;;;15.80;10.90;;;-0.10;99.90;;;;;;5075087;28;20200;-75
2023/12/08 09:57:22;;;;;;;17.97;11.70;;;0.10;99.90;;;;;;5075659;28;20176;-77
2023/12/08 09:59:51;;;;;;;16.93;11.30;;;0.00;99.90;;;;;;5057698;28;20194;-74
2023/12/08 10:02:18;;;;;;;15.57;10.63;;;0.10;99.90;;;;;;5076155;28;20185;-77
2023/12/08 10:04:43;;;;;;;18.70;11.47;;;0.10;99.90;;;;;;5090554;28;20191;-77
2023/12/08 10:07:11;;;;;;;18.43;11.73;;;0.20;99.90;;;;;;5086136;28;20672;-76
2023/12/08 10:09:37;;;;;;;17.47;11.13;;;0.20;99.90;;;;;;5080483;28;20245;-75
2023/12/08 10:12:03;;;;;;;15.27;10.13;;;0.30;99.90;;;;;;5084881;28;20617;-75
2023/12/08 10:14:29;;;;;;;13.27;9.97;;;0.50;99.90;;;;;;5095414;28;20711;-75
2023/12/08 10:16:55;;;;;;;15.33;10.27;;;0.40;99.90;;;;;;5095955;28;20236;-76
2023/12/08 10:19:21;;;;;;;18.77;11.67;;;0.50;99.90;;;;;;5095165;28;20640;-77
2023/12/08 10:22:02;;;;;;;19.43;12.30;;;0.30;99.90;;;;;;5076562;28;20261;-77
2023/12/08 10:24:31;;;;;;;16.83;10.70;;;0.10;99.90;;;;;;5096293;28;20174;-76
2023/12/08 10:27:00;;;;;;;17.10;11.97;;;0.00;99.90;;;;;;5101440;28;20174;-76
2023/12/08 10:29:33;;;;;;;17.13;11.50;;;0.00;99.90;;;;;;5101568;28;20173;-75
2023/12/08 10:31:59;;;;;;;23.17;12.07;;;-0.20;99.90;;;;;;5095268;28;20243;-76
2023/12/08 10:34:26;;;;;;;18.13;11.57;;;-0.20;99.90;;;;;;5095096;28;20202;-76
2023/12/08 10:36:55;;;;;;;16.40;11.93;;;-0.20;99.90;;;;;;5095154;28;20534;-75
2023/12/08 10:39:22;;;;;;;16.30;11.57;;;-0.20;99.90;;;;;;5096187;28;20244;-77
2023/12/08 10:41:52;;;;;;;18.87;12.20;;;-0.10;99.90;;;;;;5103127;28;20177;-76
2023/12/08 10:44:19;;;;;;;17.83;11.83;;;0.20;99.90;;;;;;5105596;28;20178;-75
2023/12/08 10:46:48;;;;;;;17.10;12.10;;;0.10;99.90;;;;;;5099320;28;20522;-76
2023/12/08 10:49:17;;;;;;;17.87;11.27;;;0.00;99.90;;;;;;5095554;28;20231;-76
2023/12/08 10:51:45;;;;;;;23.80;11.87;;;0.00;99.90;;;;;;5076556;28;20176;-78
2023/12/08 10:54:15;;;;;;;21.20;12.43;;;0.20;99.90;;;;;;5095322;28;20210;-75
2023/12/08 10:56:41;;;;;;;21.37;12.73;;;0.30;99.90;;;;;;5102278;28;20700;-77
2023/12/08 10:59:10;;;;;;;23.57;12.30;;;0.50;99.90;;;;;;5093696;28;20254;-75
2023/12/08 11:01:38;;;;;;;17.47;11.00;;;0.70;99.90;;;;;;5093981;28;20174;-77
2023/12/08 11:04:10;;;;;;;14.30;10.80;;;0.80;99.90;;;;;;5094193;28;20169;-75
2023/12/08 11:06:45;;;;;;;18.40;11.27;;;0.90;99.90;;;;;;5076045;28;20534;-75
2023/12/08 11:09:12;;;;;;;16.67;10.27;;;1.00;99.90;;;;;;5093617;28;20242;-77
2023/12/08 11:11:51;;;;;;;18.70;10.47;;;1.00;99.90;;;;;;5094355;28;20245;-75
2023/12/08 11:14:32;;;;;;;13.53;9.73;;;1.10;99.90;;;;;;5094154;28;20342;-75
2023/12/08 11:17:06;;;;;;;15.07;10.40;;;1.10;99.90;;;;;;5094384;28;20156;-76
2023/12/08 11:19:33;;;;;;;16.60;10.80;;;1.20;99.90;;;;;;5094634;28;20147;-77
2023/12/08 11:22:00;;;;;;;15.67;10.37;;;1.20;99.90;;;;;;5094113;28;20589;-76
2023/12/08 11:24:27;;;;;;;18.93;11.50;;;1.30;99.90;;;;;;5094184;28;20167;-77
2023/12/08 11:27:01;;;;;;;15.37;10.90;;;1.30;99.90;;;;;;5093439;28;20700;-76
2023/12/08 11:30:03;;;;;;;23.63;11.80;;;1.50;99.90;;;;;;5093185;28;20253;-76
2023/12/08 11:32:29;;;;;;;17.20;10.97;;;1.50;99.90;;;;;;5093722;28;20161;-78
2023/12/08 11:35:04;;;;;;;13.17;10.17;;;1.60;99.90;;;;;;5093504;28;20213;-76
2023/12/08 11:37:32;;;;;;;14.10;10.50;;;1.50;99.90;;;;;;5095621;28;20286;-77
2023/12/08 11:40:07;;;;;;;16.13;10.97;;;1.50;99.90;;;;;;5092762;28;20171;-75
2023/12/08 11:42:33;;;;;;;14.67;10.70;;;1.60;99.90;;;;;;5092826;28;20168;-76
2023/12/08 11:45:00;;;;;;;15.23;11.17;;;1.60;99.90;;;;;;5100031;28;20182;-75
2023/12/08 11:47:26;;;;;;;16.90;11.03;;;1.60;99.90;;;;;;5093518;28;20700;-76
2023/12/08 11:49:54;;;;;;;16.63;11.47;;;1.70;99.90;;;;;;5093251;28;20529;-76
2023/12/08 11:52:28;;;;;;;15.40;10.30;;;1.70;99.90;;;;;;5093763;28;20185;-77
2023/12/08 11:54:58;;;;;;;14.20;10.70;;;1.70;99.90;;;;;;5093437;28;20195;-74
2023/12/08 11:57:23;;;;;;;17.23;11.10;;;1.60;99.90;;;;;;5092699;28;20167;-74
2023/12/08 11:59:50;;;;;;;15.17;10.73;;;1.60;99.90;;;;;;5094232;28;20184;-75
2023/12/08 12:02:16;;;;;;;15.77;10.63;;;1.70;99.90;;;;;;5093949;28;20181;-76
2023/12/08 12:04:45;;;;;;;15.00;10.27;;;1.70;99.90;;;;;;5084157;28;20183;-76
2023/12/08 12:07:10;;;;;;;17.43;10.90;;;1.70;99.90;;;;;;5104496;28;20602;-77
2023/12/08 12:09:39;;;;;;;19.67;11.87;;;1.80;99.90;;;;;;5093409;28;20232;-75
2023/12/08 12:12:12;;;;;;;16.50;11.17;;;1.80;99.90;;;;;;5093516;28;20174;-75
2023/12/08 12:14:46;;;;;;;17.43;11.33;;;1.80;99.90;;;;;;5100858;28;20227;-75
2023/12/08 12:17:12;;;;;;;15.67;10.90;;;1.80;99.90;;;;;;5094807;28;20669;-76
2023/12/08 12:19:38;;;;;;;14.63;10.90;;;1.80;99.90;;;;;;5074155;28;20615;-77
2023/12/08 12:22:05;;;;;;;17.97;11.53;;;1.80;99.90;;;;;;5092372;28;20176;-78
2023/12/08 12:24:31;;;;;;;19.33;11.13;;;1.80;99.90;;;;;;5092656;28;20179;-74
2023/12/08 12:26:57;;;;;;;15.07;10.50;;;1.80;99.90;;;;;;5093096;28;20229;-74
2023/12/08 12:29:24;;;;;;;20.77;10.93;;;1.70;99.90;;;;;;5094717;28;20179;-74
2023/12/08 12:31:51;;;;;;;15.03;11.00;;;1.50;99.90;;;;;;5100234;28;20185;-78
2023/12/08 12:34:18;;;;;;;14.87;11.00;;;1.40;99.90;;;;;;5109076;28;20650;-76
2023/12/08 12:36:44;;;;;;;13.50;10.63;;;1.50;99.90;;;;;;5100173;28;20626;-76
2023/12/08 12:39:11;;;;;;;15.80;10.17;;;1.30;99.90;;;;;;5093671;28;20193;-75